Cisco Butte, California Weather observations

Data are for observation ending at time listed.
 Day   Time    Ave.   Ave.  Ave.  Vector   Max.   Stn.    Total    Solar   Ave.   Snow 
  of    of     Air    Rel.  Wind   Wind    Wind   Baro.  Precip.   Rad.    Soil   Depth
Year   Day     Temp.  Hum.  Speed  Dir.    Gust   Pres.                    Temp.       
2015   (PST)    F      %     mph   deg.    mph     mb.     in.     W/m2     F      in. 
---------------------------------------------------------------------------------------  
 107    0:00   43.9    17   19.1    95     26.6   826.0    0.00       0    999.0  159.5
 107    0:10   44.0    17   18.7    96     26.0   825.0    0.00       0    999.0  159.5
 107    0:20   43.8    17   17.0   100     23.1   826.0    0.00       0    999.0  159.5
 107    0:30   43.7    17   17.0    97     23.0   826.0    0.00       0    999.0  159.5
 107    0:40   43.6    17   17.8    98     23.5   826.0    0.00       0    999.0  159.5
 107    0:50   43.4    18   16.7    97     24.3   826.0    0.00       0    999.0  159.5
 107    1:00   42.8    19   15.9    98     21.4   826.0    0.00       0    999.0  159.6
 107    1:10   42.6    19   17.8    98     23.7   825.0    0.00       0    999.0  159.6
 107    1:20   42.2    20   17.3    99     22.4   825.0    0.00       0    999.0  159.6
 107    1:30   41.9    21   15.7   103     21.6   825.0    0.00       0    999.0  159.6
 107    1:40   41.1    22   13.8   112     21.0   825.0    0.00       0    999.0  159.6
 107    1:50   41.2    22   14.1   101     18.9   825.0    0.00       0    999.0  159.6
 107    2:00   41.4    21   15.4   101     21.8   825.0    0.00       0    999.0  159.6
 107    2:10   41.4    21   13.9   102     18.8   825.0    0.00       0    999.0  159.6
 107    2:20   41.1    21   13.0   105     16.9   825.0    0.00       0    999.0  159.6
 107    2:30   40.9    21   12.4   108     17.8   825.0    0.00       0    999.0  159.6
 107    2:40   40.6    22   12.4   113     18.3   825.0    0.00       0    999.0  159.6
 107    2:50   40.4    22   11.4   112     14.8   825.0    0.00       0    999.0  159.6
 107    3:00   40.5    21   11.8   107     15.9   825.0    0.00       0    999.0  159.6
 107    3:10   40.6    21   11.1   110     14.3   825.0    0.00       0    999.0  159.6
 107    3:20   40.9    20   12.4   104     19.0   825.0    0.00       0    999.0  159.6
 107    3:30   41.4    19   13.7    96     18.9   825.0    0.00       0    999.0  159.6
 107    3:40   42.0    18   15.2    96     19.8   825.0    0.00       0    999.0  159.6
 107    3:50   41.7    18   13.6    95     17.7   825.0    0.00       0    999.0  159.6
 107    4:00   41.6    19   12.9    92     18.0   825.0    0.00       0    999.0  159.6
 107    4:10   41.3    19   11.5    96     16.1   825.0    0.00       0    999.0  159.6
 107    4:20   41.1    19   10.7    94     14.2   825.0    0.00       0    999.0  159.6
 107    4:30   40.9    20   10.9    95     14.6   825.0    0.00       0    999.0  159.6
 107    4:40   41.3    19   11.5    97     16.1   825.0    0.00       0    999.0  159.6
 107    4:50   41.5    19   12.5    95     16.6   826.0    0.00       0    999.0  159.6
 107    5:00   41.7    19   12.8    95     17.6   826.0    0.00       0    999.0  159.6
 107    5:10   41.7    19   13.4    98     18.5   826.0    0.00       0    999.0  159.6
 107    5:20   41.6    19   14.7    95     18.8   826.0    0.00       1    999.0  159.6
 107    5:30   41.3    20   14.9    97     18.9   826.0    0.00       3    999.0  159.6
 107    5:40   41.1    20   13.2   103     17.2   826.0    0.00      10    999.0  159.6
 107    5:50   41.0    21   12.1   106     16.1   826.0    0.00      24    999.0  159.6
 107    6:00   41.3    21   11.1   108     15.1   826.0    0.00      38    999.0  159.6
 107    6:10   41.4    21   11.0   106     15.1   826.0    0.00      54    999.0  159.6
 107    6:20   41.8    21   12.3   114     15.7   826.0    0.00      71    999.0  159.6
 107    6:30   42.0    22   12.1   112     16.4   826.0    0.00      90    999.0  159.5
 107    6:40   42.6    22   12.3   110     16.1   826.0    0.00     111    999.0  159.5
 107    6:50   43.2    22   11.9   114     16.6   826.0    0.00     134    999.0  159.5
 107    7:00   43.9    22   13.0   114     17.1   826.0    0.00     157    999.0  159.5
 107    7:10   44.2    22   13.5   115     18.6   826.0    0.00     181    999.0  159.5
 107    7:20   45.3    22   11.2   110     15.6   826.0    0.00     206    999.0  159.5
 107    7:30   46.3    21   12.2   109     16.8   826.0    0.00     231    999.0  159.5
 107    7:40   47.0    20   12.2   103     16.3   826.0    0.00     257    999.0  159.5
 107    7:50   47.3    20   12.5   115     17.3   826.0    0.00     281    999.0  159.5
 107    8:00   48.6    19   10.1   110     14.8   826.0    0.00     307    999.0  159.5
 107    8:10   49.4    18   11.5   118     19.1   826.0    0.00     331    999.0  159.5
 107    8:20   49.9    18   11.2   116     16.7   826.0    0.00     354    999.0  159.5
 107    8:30   50.6    17   11.7   111     16.7   826.0    0.00     377    999.0  159.5
 107    8:40   51.0    14   12.5    97     17.7   826.0    0.00     400    999.0  159.5
 107    8:50   51.5    14   11.4    98     16.3   826.0    0.00     422    999.0  159.5
 107    9:00   52.4    14   10.2   105     14.3   826.0    0.00     443    999.0  159.4
 107    9:10   52.6    14    9.8    97     13.7   826.0    0.00     463    999.0  159.4
 107    9:20   52.9    14    9.5   103     14.8   826.0    0.00     483    999.0  159.4
 107    9:30   53.5    14    9.1    92     13.2   826.0    0.00     501    999.0  159.4
 107    9:40   54.0    15    7.0   111     12.3   826.0    0.00     519    999.0  159.4
 107    9:50   53.9    14    7.4    94     11.7   827.0    0.00     535    999.0  159.4
 107   10:00   54.8    14    6.0   100     10.5   827.0    0.00     550    999.0  159.4
 107   10:10   55.5    13    6.1   113     10.2   827.0    0.00     565    999.0  159.4
 107   10:20   55.6    14    6.0   102      9.4   827.0    0.00     578    999.0  159.4
 107   10:30   55.5    14    5.8   104      9.5   827.0    0.00     590    999.0  159.4
 107   10:40   56.2    13    2.9   120      6.4   827.0    0.00     602    999.0  159.4
 107   10:50   57.9    13    2.5   172      7.2   827.0    0.00     613    999.0  159.3
 107   11:00   59.9    10    5.1   267      9.8   826.0    0.00     622    999.0  159.4
 107   11:10   59.1    11    2.3    49      5.8   826.0    0.00     630    999.0  159.4
 107   11:20   58.8    11    2.5   146      6.8   826.0    0.00     637    999.0  159.3
 107   11:30   59.6    14    3.6   152     10.4   826.0    0.00     640    999.0  159.3
 107   11:40   59.9    16    4.9   255     15.0   826.0    0.00     642    999.0  159.3
 107   11:50   60.1    15    8.1   272     14.5   826.0    0.00     644    999.0  159.4
 107   12:00   59.3    16    9.9   288     15.6   826.0    0.00     645    999.0  159.4
 107   12:10   59.8    16    9.2   274     13.7   826.0    0.00     646    999.0  159.4
 107   12:20   60.3    16    9.7   280     15.1   826.0    0.00     645    999.0  159.4
 107   12:30   60.7    16   10.1   266     17.4   826.0    0.00     643    999.0  159.4
 107   12:40   59.8    18   12.6   280     19.0   826.0    0.00     638    999.0  159.4
 107   12:50   59.5    19   12.0   274     19.1   826.0    0.00     632    999.0  159.4
 107   13:00   60.1    19    9.5   262     16.3   826.0    0.00     626    999.0  159.4
 107   13:10   61.3    18   11.4   275     16.7   826.0    0.00     619    999.0  159.3
 107   13:20   60.8    19   10.3   283     16.3   826.0    0.00     609    999.0  159.3
 107   13:30   60.7    20   11.9   272     18.3   826.0    0.00     599    999.0  159.4
 107   13:40   60.5    20   11.6   274     18.6   825.0    0.00     587    999.0  159.4
 107   13:50   60.5    20   11.0   271     18.6   825.0    0.00     576    999.0  159.4
 107   14:00   60.9    20   10.7   283     17.6   825.0    0.00     563    999.0  159.3
 107   14:10   60.4    21   12.1   273     20.0   825.0    0.00     549    999.0  159.4
 107   14:20   60.0    22   12.1   276     19.4   825.0    0.00     533    999.0  159.4
 107   14:30   60.2    23   14.7   277     21.0   825.0    0.00     517    999.0  159.4
 107   14:40   59.4    26   13.8   274     20.1   825.0    0.00     500    999.0  159.4
 107   14:50   59.9    26   10.6   279     19.6   825.0    0.00     482    999.0  159.4
 107   15:00   60.2    28   12.2   276     20.0   825.0    0.00     456    999.0  159.3
 107   15:10   58.8    30   13.4   279     21.0   825.0    0.00     441    999.0  159.1
 107   15:20   58.5    31   13.5   275     21.3   825.0    0.00     413    999.0  159.1
 107   15:30   58.4    31   11.3   278     17.6   825.0    0.00     399    999.0  159.1
 107   15:40   59.6    30   11.0   280     16.7   825.0    0.00     366    999.0  159.1
 107   15:50   58.9    31   12.2   278     18.5   825.0    0.00     354    999.0  159.1
 107   16:00   58.9    30   11.9   276     17.2   825.0    0.00     332    999.0  159.1
 107   16:10   58.9    30   10.4   279     15.6   825.0    0.00     251    999.0  159.1
 107   16:20   58.4    29   10.6   280     16.9   825.0    0.00      22    999.0  159.1
 107   16:30   58.4    29    9.5   282     13.3   825.0    0.00     205    999.0  159.1
 107   16:40   58.6    28    8.1   280     12.7   825.0    0.00     238    999.0  159.1
 107   16:50   58.6    28    7.8   276     13.2   825.0    0.00     214    999.0  159.1
 107   17:00   57.9    28    9.4   285     15.3   825.0    0.00     189    999.0  159.1
 107   17:10   57.5    28   10.0   279     13.8   825.0    0.00     166    999.0  159.1
 107   17:20   57.2    29    9.6   280     13.5   825.0    0.00     143    999.0  159.2
 107   17:30   56.7    30    9.5   276     14.2   825.0    0.00     121    999.0  159.1
 107   17:40   56.4    30    8.9   275     13.0   825.0    0.00      99    999.0  159.1
 107   17:50   56.1    31    8.7   276     11.7   825.0    0.00      68    999.0  159.1
 107   18:00   55.9    32    6.7   276      9.9   825.0    0.00      13    999.0  159.1
 107   18:10   55.2    32    7.8   279     10.2   825.0    0.00      12    999.0  159.1
 107   18:20   54.6    34    6.3   278      8.4   825.0    0.00      10    999.0  159.0
 107   18:30   53.6    36    6.1   277      8.3   825.0    0.00       8    999.0  158.8
 107   18:40   52.4    38    4.9   278      6.7   825.0    0.00       6    999.0   78.0
 107   18:50   51.5    40    3.6   273      6.2   825.0    0.00       3    999.0  111.8
 107   19:00   50.4    42    2.3   274      3.5   825.0    0.00       1    999.0  158.8
 107   19:10   49.9    42    1.3   283      2.9   825.0    0.00       0    999.0  158.8
 107   19:20   50.1    42    0.6   286      1.9   825.0    0.00       0    999.0  158.9
 107   19:30   50.5    40    1.2    62      2.9   825.0    0.00       0    999.0  159.1
 107   19:40   50.5    40    2.1    54      3.1   826.0    0.00       0    999.0  159.1
 107   19:50   50.1    42    1.6    92      2.7   826.0    0.00       0    999.0  159.1
 107   20:00   49.4    44    1.2   112      2.5   826.0    0.00       0    999.0  159.1
 107   20:10   48.8    46    3.5    92      6.3   826.0    0.00       0    999.0  159.1
 107   20:20   47.5    48    4.7    98      7.5   826.0    0.00       0    999.0  159.1
 107   20:30   47.5    48    3.5    99      7.1   826.0    0.00       0    999.0  159.1
 107   20:40   47.1    49    2.7   112      6.1   826.0    0.00       0    999.0  159.1
 107   20:50   48.1    46    3.0    66      5.0   826.0    0.00       0    999.0  159.1
 107   21:00   48.8    44    2.5    87      4.2   826.0    0.00       0    999.0  159.1
 107   21:10   47.9    46    2.1   107      5.0   826.0    0.00       0    999.0  159.1
 107   21:20   47.2    48    2.8    93      4.8   826.0    0.00       0    999.0  159.1
 107   21:30   46.5    50    3.6    80      5.2   826.0    0.00       0    999.0  159.1
 107   21:40   46.6    49    3.6    85      5.4   826.0    0.00       0    999.0  159.0
 107   21:50   47.0    48    2.8    84      3.9   826.0    0.00       0    999.0  159.0
 107   22:00   46.7    48    2.9    85      4.5   826.0    0.00       0    999.0  159.0
 107   22:10   46.6    48    3.2    88      6.2   826.0    0.00       0    999.0  159.0
 107   22:20   47.5    42    2.5    81      7.1   826.0    0.00       0    999.0   63.2
 107   22:30   49.9    37    1.5    86      3.0   826.0    0.00       0    999.0   32.0
 107   22:40   50.5    35    1.9    90      3.9   826.0    0.00       0    999.0  143.8
 107   22:50   49.9    37    2.4   106      5.2   826.0    0.00       0    999.0  159.1
 107   23:00   49.9    37    2.1   103      4.4   826.0    0.00       0    999.0  159.1
 107   23:10   49.8    37    2.4   103      4.0   826.0    0.00       0    999.0  159.1
 107   23:20   49.1    39    3.4    97      5.9   826.0    0.00       0    999.0  159.1
 107   23:30   47.0    40    4.4   100      6.6   826.0    0.00       0    999.0  159.1
 107   23:40   46.9    40    3.8    92      5.8   826.0    0.00       0    999.0  159.1

Return to Cisco Butte graphs page.


Western Regional Climate Center,wrcc@dri.edu